sensor_id;sensor_type;location;lat;lon;timestamp;pressure;altitude;pressure_sealevel;temperature;humidity
51333;BME280;37417;48.118;11.734;2023-04-28T00:02:09;61376.22;;;-141.85;100.00
51333;BME280;37417;48.118;11.734;2023-04-28T00:04:54;61376.22;;;-141.85;100.00
51333;BME280;37417;48.118;11.734;2023-04-28T00:07:40;61376.22;;;-141.85;100.00
51333;BME280;37417;48.118;11.734;2023-04-28T00:10:26;61376.22;;;-141.85;100.00
51333;BME280;37417;48.118;11.734;2023-04-28T00:13:11;61376.22;;;-141.85;100.00
51333;BME280;37417;48.118;11.734;2023-04-28T00:15:57;61376.22;;;-141.85;100.00
51333;BME280;37417;48.118;11.734;2023-04-28T00:18:44;61376.22;;;-141.85;100.00
51333;BME280;37417;48.118;11.734;2023-04-28T00:21:30;61376.22;;;-141.85;100.00
51333;BME280;37417;48.118;11.734;2023-04-28T00:24:16;61376.22;;;-141.85;100.00
51333;BME280;37417;48.118;11.734;2023-04-28T00:27:02;61376.22;;;-141.85;100.00
51333;BME280;37417;48.118;11.734;2023-04-28T00:29:47;61376.22;;;-141.85;100.00
51333;BME280;37417;48.118;11.734;2023-04-28T00:32:33;61376.22;;;-141.85;100.00
51333;BME280;37417;48.118;11.734;2023-04-28T00:35:19;61376.22;;;-141.85;100.00
51333;BME280;37417;48.118;11.734;2023-04-28T00:38:04;61376.22;;;-141.85;100.00
51333;BME280;37417;48.118;11.734;2023-04-28T00:40:50;61376.22;;;-141.85;100.00
51333;BME280;37417;48.118;11.734;2023-04-28T00:43:46;61376.22;;;-141.85;100.00
51333;BME280;37417;48.118;11.734;2023-04-28T00:46:32;61376.22;;;-141.85;100.00
51333;BME280;37417;48.118;11.734;2023-04-28T00:49:18;61376.22;;;-141.85;100.00
51333;BME280;37417;48.118;11.734;2023-04-28T00:52:05;61376.22;;;-141.85;100.00
51333;BME280;37417;48.118;11.734;2023-04-28T00:54:51;61376.22;;;-141.85;100.00
51333;BME280;37417;48.118;11.734;2023-04-28T00:57:37;61376.22;;;-141.85;100.00
51333;BME280;37417;48.118;11.734;2023-04-28T01:00:22;61376.22;;;-141.85;100.00
51333;BME280;37417;48.118;11.734;2023-04-28T01:03:08;61376.22;;;-141.85;100.00
51333;BME280;37417;48.118;11.734;2023-04-28T01:05:54;61376.22;;;-141.85;100.00
51333;BME280;37417;48.118;11.734;2023-04-28T01:08:40;61376.22;;;-141.85;100.00
51333;BME280;37417;48.118;11.734;2023-04-28T01:11:27;61376.22;;;-141.85;100.00
51333;BME280;37417;48.118;11.734;2023-04-28T01:14:12;61376.22;;;-141.85;100.00
51333;BME280;37417;48.118;11.734;2023-04-28T01:16:58;61376.22;;;-141.85;100.00
51333;BME280;37417;48.118;11.734;2023-04-28T01:19:43;61376.22;;;-141.85;100.00
51333;BME280;37417;48.118;11.734;2023-04-28T01:22:29;61376.22;;;-141.85;100.00
51333;BME280;37417;48.118;11.734;2023-04-28T01:25:15;61376.22;;;-141.85;100.00
51333;BME280;37417;48.118;11.734;2023-04-28T01:28:01;61376.22;;;-141.85;100.00
51333;BME280;37417;48.118;11.734;2023-04-28T01:30:46;61376.22;;;-141.85;100.00
51333;BME280;37417;48.118;11.734;2023-04-28T01:33:32;61376.22;;;-141.85;100.00
51333;BME280;37417;48.118;11.734;2023-04-28T01:36:17;61376.22;;;-141.85;100.00
51333;BME280;37417;48.118;11.734;2023-04-28T01:39:03;61376.22;;;-141.85;100.00
51333;BME280;37417;48.118;11.734;2023-04-28T01:41:49;61376.22;;;-141.85;100.00
51333;BME280;37417;48.118;11.734;2023-04-28T01:44:35;61376.22;;;-141.85;100.00
51333;BME280;37417;48.118;11.734;2023-04-28T01:47:21;61376.22;;;-141.85;100.00
51333;BME280;37417;48.118;11.734;2023-04-28T01:50:06;61376.22;;;-141.85;100.00
51333;BME280;37417;48.118;11.734;2023-04-28T01:52:52;61376.22;;;-141.85;100.00
51333;BME280;37417;48.118;11.734;2023-04-28T01:55:38;61376.22;;;-141.85;100.00
51333;BME280;37417;48.118;11.734;2023-04-28T01:58:24;61376.22;;;-141.85;100.00
51333;BME280;37417;48.118;11.734;2023-04-28T02:01:09;61376.22;;;-141.85;100.00
51333;BME280;37417;48.118;11.734;2023-04-28T02:03:55;61376.22;;;-141.85;100.00
51333;BME280;37417;48.118;11.734;2023-04-28T02:06:41;61376.22;;;-141.85;100.00
51333;BME280;37417;48.118;11.734;2023-04-28T02:09:27;61376.22;;;-141.85;100.00
51333;BME280;37417;48.118;11.734;2023-04-28T02:12:12;61376.22;;;-141.85;100.00
51333;BME280;37417;48.118;11.734;2023-04-28T02:14:58;61376.22;;;-141.85;100.00
51333;BME280;37417;48.118;11.734;2023-04-28T02:17:44;61376.22;;;-141.85;100.00
51333;BME280;37417;48.118;11.734;2023-04-28T02:20:29;61376.22;;;-141.85;100.00
51333;BME280;37417;48.118;11.734;2023-04-28T02:23:15;61376.22;;;-141.85;100.00
51333;BME280;37417;48.118;11.734;2023-04-28T02:26:01;61376.22;;;-141.85;100.00
51333;BME280;37417;48.118;11.734;2023-04-28T02:28:48;61376.22;;;-141.85;100.00
51333;BME280;37417;48.118;11.734;2023-04-28T02:31:33;61376.22;;;-141.85;100.00
51333;BME280;37417;48.118;11.734;2023-04-28T02:34:19;61376.22;;;-141.85;100.00
51333;BME280;37417;48.118;11.734;2023-04-28T02:37:05;61376.22;;;-141.85;100.00
51333;BME280;37417;48.118;11.734;2023-04-28T02:39:51;61376.22;;;-141.85;100.00
51333;BME280;37417;48.118;11.734;2023-04-28T02:42:37;61376.22;;;-141.85;100.00
51333;BME280;37417;48.118;11.734;2023-04-28T02:45:23;61376.22;;;-141.85;100.00
51333;BME280;37417;48.118;11.734;2023-04-28T02:48:09;61376.22;;;-141.85;100.00
51333;BME280;37417;48.118;11.734;2023-04-28T02:50:54;61376.22;;;-141.85;100.00
51333;BME280;37417;48.118;11.734;2023-04-28T02:53:40;61376.22;;;-141.85;100.00
51333;BME280;37417;48.118;11.734;2023-04-28T02:56:26;61376.22;;;-141.85;100.00
51333;BME280;37417;48.118;11.734;2023-04-28T02:59:11;61376.22;;;-141.85;100.00
51333;BME280;37417;48.118;11.734;2023-04-28T03:01:57;61376.22;;;-141.85;100.00
51333;BME280;37417;48.118;11.734;2023-04-28T03:04:43;61376.22;;;-141.85;100.00
51333;BME280;37417;48.118;11.734;2023-04-28T03:07:28;61376.22;;;-141.85;100.00
51333;BME280;37417;48.118;11.734;2023-04-28T03:10:14;61376.22;;;-141.85;100.00
51333;BME280;37417;48.118;11.734;2023-04-28T03:13:00;61376.22;;;-141.85;100.00
51333;BME280;37417;48.118;11.734;2023-04-28T03:15:45;61376.22;;;-141.85;100.00
51333;BME280;37417;48.118;11.734;2023-04-28T03:18:31;61376.22;;;-141.85;100.00
51333;BME280;37417;48.118;11.734;2023-04-28T03:21:17;61376.22;;;-141.85;100.00
51333;BME280;37417;48.118;11.734;2023-04-28T03:24:02;61376.22;;;-141.85;100.00
51333;BME280;37417;48.118;11.734;2023-04-28T03:26:48;61376.22;;;-141.85;100.00
51333;BME280;37417;48.118;11.734;2023-04-28T03:29:34;61376.22;;;-141.85;100.00
51333;BME280;37417;48.118;11.734;2023-04-28T03:32:19;61376.22;;;-141.85;100.00
51333;BME280;37417;48.118;11.734;2023-04-28T03:35:05;61376.22;;;-141.85;100.00
51333;BME280;37417;48.118;11.734;2023-04-28T03:37:51;61376.22;;;-141.85;100.00
51333;BME280;37417;48.118;11.734;2023-04-28T03:40:37;61376.22;;;-141.85;100.00
51333;BME280;37417;48.118;11.734;2023-04-28T03:43:23;61376.22;;;-141.85;100.00
51333;BME280;37417;48.118;11.734;2023-04-28T03:46:08;61376.22;;;-141.85;100.00
51333;BME280;37417;48.118;11.734;2023-04-28T03:48:54;61376.22;;;-141.85;100.00
51333;BME280;37417;48.118;11.734;2023-04-28T03:51:40;61376.22;;;-141.85;100.00
51333;BME280;37417;48.118;11.734;2023-04-28T03:54:25;61376.22;;;-141.85;100.00
51333;BME280;37417;48.118;11.734;2023-04-28T03:57:11;61376.22;;;-141.85;100.00
51333;BME280;37417;48.118;11.734;2023-04-28T03:59:57;61376.22;;;-141.85;100.00
51333;BME280;37417;48.118;11.734;2023-04-28T04:02:42;61376.22;;;-141.85;100.00
51333;BME280;37417;48.118;11.734;2023-04-28T04:05:28;61376.22;;;-141.85;100.00
51333;BME280;37417;48.118;11.734;2023-04-28T04:08:14;61376.22;;;-141.85;100.00
51333;BME280;37417;48.118;11.734;2023-04-28T04:10:59;61376.22;;;-141.85;100.00
51333;BME280;37417;48.118;11.734;2023-04-28T04:13:45;61376.22;;;-141.85;100.00
51333;BME280;37417;48.118;11.734;2023-04-28T04:16:31;61376.22;;;-141.85;100.00
51333;BME280;37417;48.118;11.734;2023-04-28T04:19:16;61376.22;;;-141.85;100.00
51333;BME280;37417;48.118;11.734;2023-04-28T04:22:02;61376.22;;;-141.85;100.00
51333;BME280;37417;48.118;11.734;2023-04-28T04:24:48;61376.22;;;-141.85;100.00
51333;BME280;37417;48.118;11.734;2023-04-28T04:27:33;61376.22;;;-141.85;100.00
51333;BME280;37417;48.118;11.734;2023-04-28T04:30:19;61376.22;;;-141.85;100.00
51333;BME280;37417;48.118;11.734;2023-04-28T04:33:05;61376.22;;;-141.85;100.00
51333;BME280;37417;48.118;11.734;2023-04-28T04:35:50;61376.22;;;-141.85;100.00
51333;BME280;37417;48.118;11.734;2023-04-28T04:38:36;61376.22;;;-141.85;100.00
51333;BME280;37417;48.118;11.734;2023-04-28T04:41:22;61376.22;;;-141.85;100.00
51333;BME280;37417;48.118;11.734;2023-04-28T04:44:07;61376.22;;;-141.85;100.00
51333;BME280;37417;48.118;11.734;2023-04-28T04:46:53;61376.22;;;-141.85;100.00
51333;BME280;37417;48.118;11.734;2023-04-28T04:49:38;61376.22;;;-141.85;100.00
51333;BME280;37417;48.118;11.734;2023-04-28T04:52:24;61376.22;;;-141.85;100.00
51333;BME280;37417;48.118;11.734;2023-04-28T04:55:10;61376.22;;;-141.85;100.00
51333;BME280;37417;48.118;11.734;2023-04-28T04:57:55;61376.22;;;-141.85;100.00
51333;BME280;37417;48.118;11.734;2023-04-28T05:00:41;61376.22;;;-141.85;100.00
51333;BME280;37417;48.118;11.734;2023-04-28T05:03:27;61376.22;;;-141.85;100.00
51333;BME280;37417;48.118;11.734;2023-04-28T05:06:12;61376.22;;;-141.85;100.00
51333;BME280;37417;48.118;11.734;2023-04-28T05:08:58;61376.22;;;-141.85;100.00
51333;BME280;37417;48.118;11.734;2023-04-28T05:11:44;61376.22;;;-141.85;100.00
51333;BME280;37417;48.118;11.734;2023-04-28T05:14:30;61376.22;;;-141.85;100.00
51333;BME280;37417;48.118;11.734;2023-04-28T05:17:15;61376.22;;;-141.85;100.00
51333;BME280;37417;48.118;11.734;2023-04-28T05:20:03;61376.22;;;-141.85;100.00
51333;BME280;37417;48.118;11.734;2023-04-28T05:22:48;61376.22;;;-141.85;100.00
51333;BME280;37417;48.118;11.734;2023-04-28T05:25:34;61376.22;;;-141.85;100.00
51333;BME280;37417;48.118;11.734;2023-04-28T05:28:20;61376.22;;;-141.85;100.00
51333;BME280;37417;48.118;11.734;2023-04-28T05:31:06;61376.22;;;-141.85;100.00
51333;BME280;37417;48.118;11.734;2023-04-28T05:33:52;61376.22;;;-141.85;100.00
51333;BME280;37417;48.118;11.734;2023-04-28T05:36:38;61376.22;;;-141.85;100.00
51333;BME280;37417;48.118;11.734;2023-04-28T05:39:23;61376.22;;;-141.85;100.00
51333;BME280;37417;48.118;11.734;2023-04-28T05:42:09;61376.22;;;-141.85;100.00
51333;BME280;37417;48.118;11.734;2023-04-28T05:44:55;61376.22;;;-141.85;100.00
51333;BME280;37417;48.118;11.734;2023-04-28T05:47:40;61376.22;;;-141.85;100.00
51333;BME280;37417;48.118;11.734;2023-04-28T05:50:26;61376.22;;;-141.85;100.00
51333;BME280;37417;48.118;11.734;2023-04-28T05:53:12;61376.22;;;-141.85;100.00
51333;BME280;37417;48.118;11.734;2023-04-28T05:55:57;61376.22;;;-141.85;100.00
51333;BME280;37417;48.118;11.734;2023-04-28T05:58:43;61376.22;;;-141.85;100.00
51333;BME280;37417;48.118;11.734;2023-04-28T06:01:32;61376.22;;;-141.85;100.00
51333;BME280;37417;48.118;11.734;2023-04-28T06:04:17;61376.22;;;-141.85;100.00
51333;BME280;37417;48.118;11.734;2023-04-28T06:07:03;61376.22;;;-141.85;100.00
51333;BME280;37417;48.118;11.734;2023-04-28T06:09:49;61376.22;;;-141.85;100.00
51333;BME280;37417;48.118;11.734;2023-04-28T06:12:34;61376.22;;;-141.85;100.00
51333;BME280;37417;48.118;11.734;2023-04-28T06:15:21;61376.22;;;-141.85;100.00
51333;BME280;37417;48.118;11.734;2023-04-28T06:18:06;61376.22;;;-141.85;100.00
51333;BME280;37417;48.118;11.734;2023-04-28T06:20:53;61376.22;;;-141.85;100.00
51333;BME280;37417;48.118;11.734;2023-04-28T06:23:39;61376.22;;;-141.85;100.00
51333;BME280;37417;48.118;11.734;2023-04-28T06:26:26;61376.22;;;-141.85;100.00
51333;BME280;37417;48.118;11.734;2023-04-28T06:29:12;61376.22;;;-141.85;100.00
51333;BME280;37417;48.118;11.734;2023-04-28T06:31:58;61376.22;;;-141.85;100.00
51333;BME280;37417;48.118;11.734;2023-04-28T06:34:43;61376.22;;;-141.85;100.00
51333;BME280;37417;48.118;11.734;2023-04-28T06:37:29;61376.22;;;-141.85;100.00
51333;BME280;37417;48.118;11.734;2023-04-28T06:40:15;61376.22;;;-141.85;100.00
51333;BME280;37417;48.118;11.734;2023-04-28T06:43:00;61376.22;;;-141.85;100.00
51333;BME280;37417;48.118;11.734;2023-04-28T06:45:46;61376.22;;;-141.85;100.00
51333;BME280;37417;48.118;11.734;2023-04-28T06:48:32;61376.22;;;-141.85;100.00
51333;BME280;37417;48.118;11.734;2023-04-28T06:51:18;61376.22;;;-141.85;100.00
51333;BME280;37417;48.118;11.734;2023-04-28T06:54:04;61376.22;;;-141.85;100.00
51333;BME280;37417;48.118;11.734;2023-04-28T06:56:50;61376.22;;;-141.85;100.00
51333;BME280;37417;48.118;11.734;2023-04-28T06:59:35;61376.22;;;-141.85;100.00
51333;BME280;37417;48.118;11.734;2023-04-28T07:02:21;61376.22;;;-141.85;100.00
51333;BME280;37417;48.118;11.734;2023-04-28T07:05:07;61376.22;;;-141.85;100.00
51333;BME280;37417;48.118;11.734;2023-04-28T07:07:53;61376.22;;;-141.85;100.00
51333;BME280;37417;48.118;11.734;2023-04-28T07:10:39;61376.22;;;-141.85;100.00
51333;BME280;37417;48.118;11.734;2023-04-28T07:13:25;61376.22;;;-141.85;100.00
51333;BME280;37417;48.118;11.734;2023-04-28T07:16:10;61376.22;;;-141.85;100.00
51333;BME280;37417;48.118;11.734;2023-04-28T07:18:56;61376.22;;;-141.85;100.00
51333;BME280;37417;48.118;11.734;2023-04-28T07:21:41;61376.22;;;-141.85;100.00
51333;BME280;37417;48.118;11.734;2023-04-28T07:24:27;61376.22;;;-141.85;100.00
51333;BME280;37417;48.118;11.734;2023-04-28T07:27:13;61376.22;;;-141.85;100.00
51333;BME280;37417;48.118;11.734;2023-04-28T07:29:59;61376.22;;;-141.85;100.00
51333;BME280;37417;48.118;11.734;2023-04-28T07:32:44;61376.22;;;-141.85;100.00
51333;BME280;37417;48.118;11.734;2023-04-28T07:35:30;61376.22;;;-141.85;100.00
51333;BME280;37417;48.118;11.734;2023-04-28T07:38:16;61376.22;;;-141.85;100.00
51333;BME280;37417;48.118;11.734;2023-04-28T07:41:03;61376.22;;;-141.85;100.00
51333;BME280;37417;48.118;11.734;2023-04-28T07:43:48;61376.22;;;-141.85;100.00
51333;BME280;37417;48.118;11.734;2023-04-28T07:46:34;61376.22;;;-141.85;100.00
51333;BME280;37417;48.118;11.734;2023-04-28T07:49:20;61376.22;;;-141.85;100.00
51333;BME280;37417;48.118;11.734;2023-04-28T07:52:06;61376.22;;;-141.85;100.00
51333;BME280;37417;48.118;11.734;2023-04-28T07:54:51;61376.22;;;-141.85;100.00
51333;BME280;37417;48.118;11.734;2023-04-28T07:57:37;61376.22;;;-141.85;100.00
51333;BME280;37417;48.118;11.734;2023-04-28T08:00:23;61376.22;;;-141.85;100.00
51333;BME280;37417;48.118;11.734;2023-04-28T08:03:09;61376.22;;;-141.85;100.00
51333;BME280;37417;48.118;11.734;2023-04-28T08:05:55;61376.22;;;-141.85;100.00
51333;BME280;37417;48.118;11.734;2023-04-28T08:08:41;61376.22;;;-141.85;100.00
51333;BME280;37417;48.118;11.734;2023-04-28T08:11:27;61376.22;;;-141.85;100.00
51333;BME280;37417;48.118;11.734;2023-04-28T08:14:12;61376.22;;;-141.85;100.00
51333;BME280;37417;48.118;11.734;2023-04-28T08:16:58;61376.22;;;-141.85;100.00
51333;BME280;37417;48.118;11.734;2023-04-28T08:19:43;61376.22;;;-141.85;100.00
51333;BME280;37417;48.118;11.734;2023-04-28T08:22:30;61376.22;;;-141.85;100.00
51333;BME280;37417;48.118;11.734;2023-04-28T08:25:16;61376.22;;;-141.85;100.00
51333;BME280;37417;48.118;11.734;2023-04-28T08:28:03;61376.22;;;-141.85;100.00
51333;BME280;37417;48.118;11.734;2023-04-28T08:30:48;61376.22;;;-141.85;100.00
51333;BME280;37417;48.118;11.734;2023-04-28T08:33:34;61376.22;;;-141.85;100.00
51333;BME280;37417;48.118;11.734;2023-04-28T08:36:20;61376.22;;;-141.85;100.00
51333;BME280;37417;48.118;11.734;2023-04-28T08:39:05;61376.22;;;-141.85;100.00
51333;BME280;37417;48.118;11.734;2023-04-28T08:41:52;61376.22;;;-141.85;100.00
51333;BME280;37417;48.118;11.734;2023-04-28T08:44:38;61376.22;;;-141.85;100.00
51333;BME280;37417;48.118;11.734;2023-04-28T08:47:35;61376.22;;;-141.85;100.00
51333;BME280;37417;48.118;11.734;2023-04-28T08:50:22;61376.22;;;-141.85;100.00
51333;BME280;37417;48.118;11.734;2023-04-28T08:53:11;61376.22;;;-141.85;100.00
51333;BME280;37417;48.118;11.734;2023-04-28T08:55:58;61376.22;;;-141.85;100.00
51333;BME280;37417;48.118;11.734;2023-04-28T08:58:44;61376.22;;;-141.85;100.00
51333;BME280;37417;48.118;11.734;2023-04-28T09:01:31;61376.22;;;-141.85;100.00
51333;BME280;37417;48.118;11.734;2023-04-28T09:04:16;61376.22;;;-141.85;100.00
51333;BME280;37417;48.118;11.734;2023-04-28T09:07:02;61376.22;;;-141.85;100.00
51333;BME280;37417;48.118;11.734;2023-04-28T09:09:48;61376.22;;;-141.85;100.00
51333;BME280;37417;48.118;11.734;2023-04-28T09:12:37;61376.22;;;-141.85;100.00
51333;BME280;37417;48.118;11.734;2023-04-28T09:15:37;61376.22;;;-141.85;100.00
51333;BME280;37417;48.118;11.734;2023-04-28T09:18:25;61376.22;;;-141.85;100.00
51333;BME280;37417;48.118;11.734;2023-04-28T09:21:10;61376.22;;;-141.85;100.00
51333;BME280;37417;48.118;11.734;2023-04-28T09:23:57;61376.22;;;-141.85;100.00
51333;BME280;37417;48.118;11.734;2023-04-28T09:26:47;61376.22;;;-141.85;100.00
51333;BME280;37417;48.118;11.734;2023-04-28T09:29:35;61376.22;;;-141.85;100.00
51333;BME280;37417;48.118;11.734;2023-04-28T09:32:21;61376.22;;;-141.85;100.00
51333;BME280;37417;48.118;11.734;2023-04-28T09:35:07;61376.22;;;-141.85;100.00
51333;BME280;37417;48.118;11.734;2023-04-28T09:37:59;61376.22;;;-141.85;100.00
51333;BME280;37417;48.118;11.734;2023-04-28T09:40:56;61376.22;;;-141.85;100.00
51333;BME280;37417;48.118;11.734;2023-04-28T09:43:42;61376.22;;;-141.85;100.00
51333;BME280;37417;48.118;11.734;2023-04-28T09:46:28;61376.22;;;-141.85;100.00
51333;BME280;37417;48.118;11.734;2023-04-28T09:49:14;61376.22;;;-141.85;100.00
51333;BME280;37417;48.118;11.734;2023-04-28T09:52:11;61376.22;;;-141.85;100.00
51333;BME280;37417;48.118;11.734;2023-04-28T09:55:00;61376.22;;;-141.85;100.00
51333;BME280;37417;48.118;11.734;2023-04-28T09:57:46;61376.22;;;-141.85;100.00
51333;BME280;37417;48.118;11.734;2023-04-28T10:00:35;61376.22;;;-141.85;100.00
51333;BME280;37417;48.118;11.734;2023-04-28T10:03:23;61376.22;;;-141.85;100.00
51333;BME280;37417;48.118;11.734;2023-04-28T10:06:09;61376.22;;;-141.85;100.00
51333;BME280;37417;48.118;11.734;2023-04-28T10:08:55;61376.22;;;-141.85;100.00
51333;BME280;37417;48.118;11.734;2023-04-28T10:11:42;61376.22;;;-141.85;100.00
51333;BME280;37417;48.118;11.734;2023-04-28T10:14:30;61376.22;;;-141.85;100.00
51333;BME280;37417;48.118;11.734;2023-04-28T10:17:16;61376.22;;;-141.85;100.00
51333;BME280;37417;48.118;11.734;2023-04-28T10:20:02;61376.22;;;-141.85;100.00
51333;BME280;37417;48.118;11.734;2023-04-28T10:23:10;61376.22;;;-141.85;100.00
51333;BME280;37417;48.118;11.734;2023-04-28T10:26:02;61376.22;;;-141.85;100.00
51333;BME280;37417;48.118;11.734;2023-04-28T10:28:50;61376.22;;;-141.85;100.00
51333;BME280;37417;48.118;11.734;2023-04-28T10:31:36;61376.22;;;-141.85;100.00
51333;BME280;37417;48.118;11.734;2023-04-28T10:34:22;61376.22;;;-141.85;100.00
51333;BME280;37417;48.118;11.734;2023-04-28T10:37:08;61376.22;;;-141.85;100.00
51333;BME280;37417;48.118;11.734;2023-04-28T10:40:32;61376.22;;;-141.85;100.00
51333;BME280;37417;48.118;11.734;2023-04-28T10:46:13;95253.09;;;10.24;100.00
51333;BME280;37417;48.118;11.734;2023-04-28T10:48:59;95247.09;;;10.23;100.00
51333;BME280;37417;48.118;11.734;2023-04-28T10:51:45;95245.66;;;10.21;100.00
51333;BME280;37417;48.118;11.734;2023-04-28T10:54:31;95247.44;;;10.07;100.00
51333;BME280;37417;48.118;11.734;2023-04-28T10:57:17;95249.66;;;10.10;100.00
51333;BME280;37417;48.118;11.734;2023-04-28T11:00:26;95248.63;;;10.04;100.00
51333;BME280;37417;48.118;11.734;2023-04-28T11:03:45;95244.28;;;10.18;100.00
51333;BME280;37417;48.118;11.734;2023-04-28T11:06:37;95242.84;;;10.22;100.00
51333;BME280;37417;48.118;11.734;2023-04-28T11:12:16;95246.47;;;10.21;100.00
51333;BME280;37417;48.118;11.734;2023-04-28T11:15:12;95232.03;;;10.19;100.00
51333;BME280;37417;48.118;11.734;2023-04-28T11:18:00;95248.84;;;10.16;100.00
51333;BME280;37417;48.118;11.734;2023-04-28T11:20:49;95265.09;;;10.12;100.00
51333;BME280;37417;48.118;11.734;2023-04-28T11:23:39;95262.28;;;10.07;100.00
51333;BME280;37417;48.118;11.734;2023-04-28T11:26:26;95273.31;;;10.15;100.00
51333;BME280;37417;48.118;11.734;2023-04-28T11:29:12;95261.88;;;10.16;100.00
51333;BME280;37417;48.118;11.734;2023-04-28T11:32:00;95266.09;;;10.11;100.00
51333;BME280;37417;48.118;11.734;2023-04-28T11:34:50;95267.88;;;10.10;100.00
51333;BME280;37417;48.118;11.734;2023-04-28T11:37:36;95259.03;;;10.04;100.00
51333;BME280;37417;48.118;11.734;2023-04-28T11:40:21;95273.09;;;10.10;100.00
51333;BME280;37417;48.118;11.734;2023-04-28T11:43:07;95262.69;;;10.10;100.00
51333;BME280;37417;48.118;11.734;2023-04-28T11:45:53;95269.34;;;10.19;100.00
51333;BME280;37417;48.118;11.734;2023-04-28T11:48:39;95264.38;;;10.24;100.00
51333;BME280;37417;48.118;11.734;2023-04-28T11:51:35;95260.31;;;10.22;100.00
51333;BME280;37417;48.118;11.734;2023-04-28T11:54:26;95250.56;;;10.44;100.00
51333;BME280;37417;48.118;11.734;2023-04-28T11:57:19;95244.56;;;10.50;100.00
51333;BME280;37417;48.118;11.734;2023-04-28T12:00:13;95252.38;;;10.70;100.00
51333;BME280;37417;48.118;11.734;2023-04-28T12:03:06;95255.38;;;10.73;100.00
51333;BME280;37417;48.118;11.734;2023-04-28T12:05:52;95255.38;;;10.60;100.00
51333;BME280;37417;48.118;11.734;2023-04-28T12:08:38;95248.34;;;10.47;100.00
51333;BME280;37417;48.118;11.734;2023-04-28T12:11:23;95252.38;;;10.50;100.00
51333;BME280;37417;48.118;11.734;2023-04-28T12:14:09;95256.59;;;10.64;100.00
51333;BME280;37417;48.118;11.734;2023-04-28T12:16:55;95258.19;;;10.65;100.00
51333;BME280;37417;48.118;11.734;2023-04-28T12:19:44;95248.34;;;10.67;100.00
51333;BME280;37417;48.118;11.734;2023-04-28T12:22:30;95258.19;;;10.65;100.00
51333;BME280;37417;48.118;11.734;2023-04-28T12:25:17;95254.38;;;10.74;100.00
51333;BME280;37417;48.118;11.734;2023-04-28T12:28:05;95244.72;;;10.81;100.00
51333;BME280;37417;48.118;11.734;2023-04-28T12:31:03;95259.41;;;10.96;100.00
51333;BME280;37417;48.118;11.734;2023-04-28T12:33:49;95252.94;;;11.05;100.00
51333;BME280;37417;48.118;11.734;2023-04-28T12:36:34;95259.56;;;11.21;100.00
51333;BME280;37417;48.118;11.734;2023-04-28T12:39:20;95250.25;;;11.45;100.00
51333;BME280;37417;48.118;11.734;2023-04-28T12:42:07;95255.06;;;11.54;100.00
51333;BME280;37417;48.118;11.734;2023-04-28T12:44:53;95252.41;;;11.68;100.00
51333;BME280;37417;48.118;11.734;2023-04-28T12:47:38;95251.19;;;11.70;100.00
51333;BME280;37417;48.118;11.734;2023-04-28T12:50:24;95252.41;;;11.81;100.00
51333;BME280;37417;48.118;11.734;2023-04-28T12:53:11;95252.16;;;11.89;100.00
51333;BME280;37417;48.118;11.734;2023-04-28T12:55:57;95254.75;;;11.89;100.00
51333;BME280;37417;48.118;11.734;2023-04-28T12:58:43;95253.13;;;11.95;100.00
51333;BME280;37417;48.118;11.734;2023-04-28T13:01:29;95255.31;;;11.98;100.00
51333;BME280;37417;48.118;11.734;2023-04-28T13:04:16;95255.31;;;11.98;100.00
51333;BME280;37417;48.118;11.734;2023-04-28T13:07:02;95238.53;;;-141.85;100.00
51333;BME280;37417;48.118;11.734;2023-04-28T13:09:48;95240.91;;;11.75;100.00
51333;BME280;37417;48.118;11.734;2023-04-28T13:12:33;95235.88;;;11.80;100.00
51333;BME280;37417;48.118;11.734;2023-04-28T13:15:19;95233.00;;;12.02;100.00
51333;BME280;37417;48.118;11.734;2023-04-28T13:18:05;95219.19;;;12.26;100.00
51333;BME280;37417;48.118;11.734;2023-04-28T13:20:50;95213.28;;;12.37;100.00
51333;BME280;37417;48.118;11.734;2023-04-28T13:23:36;95214.50;;;12.60;100.00
51333;BME280;37417;48.118;11.734;2023-04-28T13:26:22;95214.50;;;12.60;100.00
51333;BME280;37417;48.118;11.734;2023-04-28T13:29:11;95215.19;;;12.48;100.00
51333;BME280;37417;48.118;11.734;2023-04-28T13:31:57;95189.56;;;12.82;100.00
51333;BME280;37417;48.118;11.734;2023-04-28T13:34:42;95196.09;;;13.16;100.00
51333;BME280;37417;48.118;11.734;2023-04-28T13:37:28;95196.09;;;13.16;100.00
51333;BME280;37417;48.118;11.734;2023-04-28T13:40:14;95177.97;;;13.15;100.00
51333;BME280;37417;48.118;11.734;2023-04-28T13:42:59;95185.72;;;13.28;100.00
51333;BME280;37417;48.118;11.734;2023-04-28T13:45:45;95182.56;;;13.01;100.00
51333;BME280;37417;48.118;11.734;2023-04-28T13:48:31;95188.50;;;12.90;100.00
51333;BME280;37417;48.118;11.734;2023-04-28T13:51:17;95181.94;;;12.99;100.00
51333;BME280;37417;48.118;11.734;2023-04-28T13:54:03;95187.41;;;13.22;100.00
51333;BME280;37417;48.118;11.734;2023-04-28T13:56:49;95180.97;;;13.55;100.00
51333;BME280;37417;48.118;11.734;2023-04-28T13:59:35;95189.69;;;13.97;100.00
51333;BME280;37417;48.118;11.734;2023-04-28T14:02:21;95166.31;;;14.26;100.00
51333;BME280;37417;48.118;11.734;2023-04-28T14:05:07;95158.97;;;14.46;100.00
51333;BME280;37417;48.118;11.734;2023-04-28T14:07:53;95164.47;;;14.56;100.00
51333;BME280;37417;48.118;11.734;2023-04-28T14:10:39;95173.03;;;14.63;100.00